Ujfeherto, Hungary
Current Conditions -  °F | °C
As of 6:45 PM on Tuesday 21 Oct 2014 (Local Time) from LHDC Reporting Station
Few Clouds Few Clouds  
Wind Chill: 54°   Ceiling: Unl
Heat Index: 54°   Visibility: 6mi
Dew Point: 50°   Wind: 6mph
Humidity: 88%   Direction: 180°S
Pressure: 29.83"   Gusts: NA
Location:  47.8°N, 21.68°E
Report Text: LHDC 211645Z 18005KT 9999 FEW016 12/10 Q1010
Loading
Personal Weather Stations






























Interactive Weather Map
Tropical Storm Tracking
New forecast layout! Learn more

10-Day Weather Forecast

Advertisements
Track Severe Weather on mobile